sensor_id;sensor_type;location;lat;lon;timestamp;P1;durP1;ratioP1;P2;durP2;ratioP2
69325;SDS011;56471;53.508;49.252;2023-01-23T00:01:53;1.70;;;1.30;;
69325;SDS011;56471;53.508;49.252;2023-01-23T00:04:19;2.88;;;1.33;;
69325;SDS011;56471;53.508;49.252;2023-01-23T00:06:44;1.58;;;1.27;;
69325;SDS011;56471;53.508;49.252;2023-01-23T00:09:11;1.73;;;1.30;;
69325;SDS011;56471;53.508;49.252;2023-01-23T00:11:37;2.28;;;1.50;;
69325;SDS011;56471;53.508;49.252;2023-01-23T00:14:03;2.42;;;1.35;;
69325;SDS011;56471;53.508;49.252;2023-01-23T00:16:29;1.75;;;1.40;;
69325;SDS011;56471;53.508;49.252;2023-01-23T00:18:56;2.58;;;1.42;;
69325;SDS011;56471;53.508;49.252;2023-01-23T00:21:24;2.25;;;1.50;;
69325;SDS011;56471;53.508;49.252;2023-01-23T00:23:53;1.63;;;1.40;;
69325;SDS011;56471;53.508;49.252;2023-01-23T00:26:29;2.83;;;1.65;;
69325;SDS011;56471;53.508;49.252;2023-01-23T00:28:56;1.85;;;1.30;;
69325;SDS011;56471;53.508;49.252;2023-01-23T00:31:24;2.05;;;1.38;;
69325;SDS011;56471;53.508;49.252;2023-01-23T00:33:53;2.85;;;1.40;;
69325;SDS011;56471;53.508;49.252;2023-01-23T00:36:26;2.70;;;1.40;;
69325;SDS011;56471;53.508;49.252;2023-01-23T00:38:55;2.05;;;1.35;;
69325;SDS011;56471;53.508;49.252;2023-01-23T00:41:20;2.47;;;1.33;;
69325;SDS011;56471;53.508;49.252;2023-01-23T00:43:46;2.28;;;1.40;;
69325;SDS011;56471;53.508;49.252;2023-01-23T00:46:13;1.90;;;1.38;;
69325;SDS011;56471;53.508;49.252;2023-01-23T00:48:39;2.92;;;1.58;;
69325;SDS011;56471;53.508;49.252;2023-01-23T00:51:05;2.15;;;1.45;;
69325;SDS011;56471;53.508;49.252;2023-01-23T00:53:30;1.83;;;1.30;;
69325;SDS011;56471;53.508;49.252;2023-01-23T00:55:56;2.60;;;1.40;;
69325;SDS011;56471;53.508;49.252;2023-01-23T00:58:22;1.30;;;1.20;;
69325;SDS011;56471;53.508;49.252;2023-01-23T01:00:48;2.80;;;1.65;;
69325;SDS011;56471;53.508;49.252;2023-01-23T01:03:14;1.73;;;1.40;;
69325;SDS011;56471;53.508;49.252;2023-01-23T01:05:39;1.83;;;1.38;;
69325;SDS011;56471;53.508;49.252;2023-01-23T01:08:05;3.05;;;1.38;;
69325;SDS011;56471;53.508;49.252;2023-01-23T01:10:31;2.03;;;1.40;;
69325;SDS011;56471;53.508;49.252;2023-01-23T01:12:59;2.15;;;1.35;;
69325;SDS011;56471;53.508;49.252;2023-01-23T01:15:26;1.80;;;1.38;;
69325;SDS011;56471;53.508;49.252;2023-01-23T01:17:53;2.15;;;1.35;;
69325;SDS011;56471;53.508;49.252;2023-01-23T01:20:19;1.77;;;1.30;;
69325;SDS011;56471;53.508;49.252;2023-01-23T01:22:47;1.83;;;1.30;;
69325;SDS011;56471;53.508;49.252;2023-01-23T01:25:14;1.33;;;1.20;;
69325;SDS011;56471;53.508;49.252;2023-01-23T01:27:39;1.80;;;1.30;;
69325;SDS011;56471;53.508;49.252;2023-01-23T01:30:05;1.60;;;1.30;;
69325;SDS011;56471;53.508;49.252;2023-01-23T01:32:35;1.88;;;1.30;;
69325;SDS011;56471;53.508;49.252;2023-01-23T01:35:02;2.85;;;1.38;;
69325;SDS011;56471;53.508;49.252;2023-01-23T01:37:32;1.63;;;1.17;;
69325;SDS011;56471;53.508;49.252;2023-01-23T01:39:59;2.25;;;1.42;;
69325;SDS011;56471;53.508;49.252;2023-01-23T01:42:25;1.85;;;1.25;;
69325;SDS011;56471;53.508;49.252;2023-01-23T01:44:59;1.88;;;1.30;;
69325;SDS011;56471;53.508;49.252;2023-01-23T01:47:26;2.13;;;1.52;;
69325;SDS011;56471;53.508;49.252;2023-01-23T01:49:53;2.42;;;1.27;;
69325;SDS011;56471;53.508;49.252;2023-01-23T01:52:24;1.98;;;1.38;;
69325;SDS011;56471;53.508;49.252;2023-01-23T01:54:57;1.73;;;1.40;;
69325;SDS011;56471;53.508;49.252;2023-01-23T01:57:34;2.58;;;1.48;;
69325;SDS011;56471;53.508;49.252;2023-01-23T02:02:42;3.28;;;1.40;;
69325;SDS011;56471;53.508;49.252;2023-01-23T02:05:18;1.38;;;1.17;;
69325;SDS011;56471;53.508;49.252;2023-01-23T02:10:32;2.03;;;1.30;;
69325;SDS011;56471;53.508;49.252;2023-01-23T02:13:19;1.98;;;1.40;;
69325;SDS011;56471;53.508;49.252;2023-01-23T02:15:50;1.90;;;1.10;;
69325;SDS011;56471;53.508;49.252;2023-01-23T02:18:17;2.92;;;1.50;;
69325;SDS011;56471;53.508;49.252;2023-01-23T02:20:43;1.67;;;1.30;;
69325;SDS011;56471;53.508;49.252;2023-01-23T02:28:13;1.27;;;1.17;;
69325;SDS011;56471;53.508;49.252;2023-01-23T02:30:40;2.08;;;1.10;;
69325;SDS011;56471;53.508;49.252;2023-01-23T02:33:10;1.38;;;1.13;;
69325;SDS011;56471;53.508;49.252;2023-01-23T02:35:55;1.50;;;1.13;;
69325;SDS011;56471;53.508;49.252;2023-01-23T02:38:23;1.90;;;1.17;;
69325;SDS011;56471;53.508;49.252;2023-01-23T02:40:51;2.45;;;1.30;;
69325;SDS011;56471;53.508;49.252;2023-01-23T02:43:19;1.50;;;1.13;;
69325;SDS011;56471;53.508;49.252;2023-01-23T02:45:48;2.25;;;1.30;;
69325;SDS011;56471;53.508;49.252;2023-01-23T02:48:14;2.38;;;1.20;;
69325;SDS011;56471;53.508;49.252;2023-01-23T02:50:40;1.20;;;1.10;;
69325;SDS011;56471;53.508;49.252;2023-01-23T02:53:07;1.90;;;1.40;;
69325;SDS011;56471;53.508;49.252;2023-01-23T02:55:33;1.75;;;1.20;;
69325;SDS011;56471;53.508;49.252;2023-01-23T02:57:59;1.75;;;1.50;;
69325;SDS011;56471;53.508;49.252;2023-01-23T03:00:43;1.40;;;1.30;;
69325;SDS011;56471;53.508;49.252;2023-01-23T03:03:10;1.75;;;1.23;;
69325;SDS011;56471;53.508;49.252;2023-01-23T03:05:36;1.20;;;1.10;;
69325;SDS011;56471;53.508;49.252;2023-01-23T03:08:01;1.95;;;1.40;;
69325;SDS011;56471;53.508;49.252;2023-01-23T03:10:27;1.85;;;1.45;;
69325;SDS011;56471;53.508;49.252;2023-01-23T03:12:54;2.88;;;1.52;;
69325;SDS011;56471;53.508;49.252;2023-01-23T03:15:22;2.00;;;1.50;;
69325;SDS011;56471;53.508;49.252;2023-01-23T03:17:48;2.25;;;1.35;;
69325;SDS011;56471;53.508;49.252;2023-01-23T03:20:17;1.83;;;1.20;;
69325;SDS011;56471;53.508;49.252;2023-01-23T03:22:43;2.28;;;1.38;;
69325;SDS011;56471;53.508;49.252;2023-01-23T03:25:08;1.70;;;1.55;;
69325;SDS011;56471;53.508;49.252;2023-01-23T03:27:34;1.80;;;1.40;;
69325;SDS011;56471;53.508;49.252;2023-01-23T03:30:01;1.48;;;1.38;;
69325;SDS011;56471;53.508;49.252;2023-01-23T03:32:37;2.35;;;1.40;;
69325;SDS011;56471;53.508;49.252;2023-01-23T03:35:04;1.80;;;1.48;;
69325;SDS011;56471;53.508;49.252;2023-01-23T03:37:31;2.67;;;1.40;;
69325;SDS011;56471;53.508;49.252;2023-01-23T03:39:57;2.47;;;1.52;;
69325;SDS011;56471;53.508;49.252;2023-01-23T03:42:41;2.28;;;1.58;;
69325;SDS011;56471;53.508;49.252;2023-01-23T03:45:07;1.98;;;1.45;;
69325;SDS011;56471;53.508;49.252;2023-01-23T03:47:33;2.10;;;1.40;;
69325;SDS011;56471;53.508;49.252;2023-01-23T03:49:59;1.40;;;1.30;;
69325;SDS011;56471;53.508;49.252;2023-01-23T03:52:25;1.55;;;1.20;;
69325;SDS011;56471;53.508;49.252;2023-01-23T03:54:51;1.80;;;1.40;;
69325;SDS011;56471;53.508;49.252;2023-01-23T03:57:17;3.45;;;1.40;;
69325;SDS011;56471;53.508;49.252;2023-01-23T03:59:43;1.60;;;1.40;;
69325;SDS011;56471;53.508;49.252;2023-01-23T04:02:09;2.10;;;1.20;;
69325;SDS011;56471;53.508;49.252;2023-01-23T04:04:35;2.25;;;1.40;;
69325;SDS011;56471;53.508;49.252;2023-01-23T04:07:01;1.88;;;1.33;;
69325;SDS011;56471;53.508;49.252;2023-01-23T04:09:27;1.73;;;1.20;;
69325;SDS011;56471;53.508;49.252;2023-01-23T04:11:54;2.45;;;1.17;;
69325;SDS011;56471;53.508;49.252;2023-01-23T04:14:20;1.40;;;1.30;;
69325;SDS011;56471;53.508;49.252;2023-01-23T04:16:46;2.85;;;1.10;;
69325;SDS011;56471;53.508;49.252;2023-01-23T04:19:12;1.55;;;1.17;;
69325;SDS011;56471;53.508;49.252;2023-01-23T04:21:38;1.80;;;1.30;;
69325;SDS011;56471;53.508;49.252;2023-01-23T04:24:04;1.23;;;1.13;;
69325;SDS011;56471;53.508;49.252;2023-01-23T04:26:30;1.63;;;1.20;;
69325;SDS011;56471;53.508;49.252;2023-01-23T04:28:56;2.13;;;1.20;;
69325;SDS011;56471;53.508;49.252;2023-01-23T04:31:21;1.65;;;1.23;;
69325;SDS011;56471;53.508;49.252;2023-01-23T04:33:47;1.88;;;1.08;;
69325;SDS011;56471;53.508;49.252;2023-01-23T04:36:13;2.53;;;1.30;;
69325;SDS011;56471;53.508;49.252;2023-01-23T04:38:38;2.08;;;1.10;;
69325;SDS011;56471;53.508;49.252;2023-01-23T04:41:04;1.77;;;1.20;;
69325;SDS011;56471;53.508;49.252;2023-01-23T04:43:29;2.05;;;1.27;;
69325;SDS011;56471;53.508;49.252;2023-01-23T04:45:55;1.60;;;1.20;;
69325;SDS011;56471;53.508;49.252;2023-01-23T04:48:22;1.52;;;1.20;;
69325;SDS011;56471;53.508;49.252;2023-01-23T04:50:48;2.60;;;1.10;;
69325;SDS011;56471;53.508;49.252;2023-01-23T04:53:14;1.10;;;1.00;;
69325;SDS011;56471;53.508;49.252;2023-01-23T04:55:40;2.13;;;1.30;;
69325;SDS011;56471;53.508;49.252;2023-01-23T04:58:06;1.80;;;1.15;;
69325;SDS011;56471;53.508;49.252;2023-01-23T05:00:32;1.42;;;1.13;;
69325;SDS011;56471;53.508;49.252;2023-01-23T05:02:57;1.50;;;1.20;;
69325;SDS011;56471;53.508;49.252;2023-01-23T05:05:23;1.38;;;1.10;;
69325;SDS011;56471;53.508;49.252;2023-01-23T05:07:49;2.58;;;1.13;;
69325;SDS011;56471;53.508;49.252;2023-01-23T05:10:15;1.90;;;1.25;;
69325;SDS011;56471;53.508;49.252;2023-01-23T05:12:42;1.25;;;1.10;;
69325;SDS011;56471;53.508;49.252;2023-01-23T05:15:07;1.10;;;1.00;;
69325;SDS011;56471;53.508;49.252;2023-01-23T05:17:34;2.15;;;1.27;;
69325;SDS011;56471;53.508;49.252;2023-01-23T05:20:00;1.40;;;1.20;;
69325;SDS011;56471;53.508;49.252;2023-01-23T05:22:25;1.25;;;1.10;;
69325;SDS011;56471;53.508;49.252;2023-01-23T05:24:51;1.70;;;1.23;;
69325;SDS011;56471;53.508;49.252;2023-01-23T05:27:19;1.50;;;1.20;;
69325;SDS011;56471;53.508;49.252;2023-01-23T05:29:45;2.10;;;1.20;;
69325;SDS011;56471;53.508;49.252;2023-01-23T05:32:10;1.52;;;0.90;;
69325;SDS011;56471;53.508;49.252;2023-01-23T05:34:36;1.52;;;1.25;;
69325;SDS011;56471;53.508;49.252;2023-01-23T05:37:02;1.50;;;1.10;;
69325;SDS011;56471;53.508;49.252;2023-01-23T05:39:30;1.85;;;1.10;;
69325;SDS011;56471;53.508;49.252;2023-01-23T05:42:01;1.77;;;1.20;;
69325;SDS011;56471;53.508;49.252;2023-01-23T05:44:33;1.73;;;1.10;;
69325;SDS011;56471;53.508;49.252;2023-01-23T05:46:59;1.17;;;1.02;;
69325;SDS011;56471;53.508;49.252;2023-01-23T05:49:24;1.38;;;1.20;;
69325;SDS011;56471;53.508;49.252;2023-01-23T05:51:50;1.70;;;1.05;;
69325;SDS011;56471;53.508;49.252;2023-01-23T05:54:15;1.40;;;1.30;;
69325;SDS011;56471;53.508;49.252;2023-01-23T05:56:41;1.98;;;1.20;;
69325;SDS011;56471;53.508;49.252;2023-01-23T05:59:07;1.23;;;0.90;;
69325;SDS011;56471;53.508;49.252;2023-01-23T06:01:33;1.20;;;0.93;;
69325;SDS011;56471;53.508;49.252;2023-01-23T06:03:59;2.00;;;1.00;;
69325;SDS011;56471;53.508;49.252;2023-01-23T06:06:27;1.45;;;0.93;;
69325;SDS011;56471;53.508;49.252;2023-01-23T06:08:53;1.42;;;1.02;;
69325;SDS011;56471;53.508;49.252;2023-01-23T06:11:18;1.48;;;1.10;;
69325;SDS011;56471;53.508;49.252;2023-01-23T06:13:44;1.98;;;1.00;;
69325;SDS011;56471;53.508;49.252;2023-01-23T06:16:09;1.75;;;1.02;;
69325;SDS011;56471;53.508;49.252;2023-01-23T06:18:35;1.77;;;1.02;;
69325;SDS011;56471;53.508;49.252;2023-01-23T06:21:01;1.58;;;1.02;;
69325;SDS011;56471;53.508;49.252;2023-01-23T06:23:27;2.15;;;1.10;;
69325;SDS011;56471;53.508;49.252;2023-01-23T06:25:53;1.10;;;1.00;;
69325;SDS011;56471;53.508;49.252;2023-01-23T06:28:23;2.05;;;1.20;;
69325;SDS011;56471;53.508;49.252;2023-01-23T06:30:49;1.67;;;1.30;;
69325;SDS011;56471;53.508;49.252;2023-01-23T06:33:15;1.80;;;1.20;;
69325;SDS011;56471;53.508;49.252;2023-01-23T06:35:40;2.75;;;0.90;;
69325;SDS011;56471;53.508;49.252;2023-01-23T06:38:08;1.67;;;1.13;;
69325;SDS011;56471;53.508;49.252;2023-01-23T06:40:34;1.30;;;1.08;;
69325;SDS011;56471;53.508;49.252;2023-01-23T06:43:00;1.10;;;1.00;;
69325;SDS011;56471;53.508;49.252;2023-01-23T06:45:25;2.58;;;1.20;;
69325;SDS011;56471;53.508;49.252;2023-01-23T06:47:51;1.38;;;1.05;;
69325;SDS011;56471;53.508;49.252;2023-01-23T06:50:17;2.10;;;1.00;;
69325;SDS011;56471;53.508;49.252;2023-01-23T06:52:43;0.90;;;0.90;;
69325;SDS011;56471;53.508;49.252;2023-01-23T06:55:08;1.80;;;1.25;;
69325;SDS011;56471;53.508;49.252;2023-01-23T06:57:34;1.20;;;1.00;;
69325;SDS011;56471;53.508;49.252;2023-01-23T07:00:00;1.42;;;1.10;;
69325;SDS011;56471;53.508;49.252;2023-01-23T07:02:26;2.00;;;1.13;;
69325;SDS011;56471;53.508;49.252;2023-01-23T07:04:51;1.30;;;0.90;;
69325;SDS011;56471;53.508;49.252;2023-01-23T07:07:17;1.42;;;0.85;;
69325;SDS011;56471;53.508;49.252;2023-01-23T07:09:43;1.40;;;0.90;;
69325;SDS011;56471;53.508;49.252;2023-01-23T07:12:11;1.25;;;0.98;;
69325;SDS011;56471;53.508;49.252;2023-01-23T07:14:37;1.45;;;1.00;;
69325;SDS011;56471;53.508;49.252;2023-01-23T07:17:03;1.65;;;1.10;;
69325;SDS011;56471;53.508;49.252;2023-01-23T07:19:28;1.23;;;1.00;;
69325;SDS011;56471;53.508;49.252;2023-01-23T07:21:54;1.30;;;1.00;;
69325;SDS011;56471;53.508;49.252;2023-01-23T07:24:20;1.08;;;0.98;;
69325;SDS011;56471;53.508;49.252;2023-01-23T07:26:46;1.88;;;1.02;;
69325;SDS011;56471;53.508;49.252;2023-01-23T07:29:12;1.35;;;1.00;;
69325;SDS011;56471;53.508;49.252;2023-01-23T07:31:38;1.27;;;0.90;;
69325;SDS011;56471;53.508;49.252;2023-01-23T07:34:03;1.27;;;1.00;;
69325;SDS011;56471;53.508;49.252;2023-01-23T07:36:30;0.95;;;0.85;;
69325;SDS011;56471;53.508;49.252;2023-01-23T07:38:56;1.80;;;0.95;;
69325;SDS011;56471;53.508;49.252;2023-01-23T07:41:23;1.30;;;1.00;;
69325;SDS011;56471;53.508;49.252;2023-01-23T07:43:49;1.17;;;0.95;;
69325;SDS011;56471;53.508;49.252;2023-01-23T07:46:15;10.27;;;5.22;;
69325;SDS011;56471;53.508;49.252;2023-01-23T07:48:41;389.48;;;232.05;;
69325;SDS011;56471;53.508;49.252;2023-01-23T07:51:06;249.32;;;137.50;;
69325;SDS011;56471;53.508;49.252;2023-01-23T07:53:32;167.25;;;96.55;;
69325;SDS011;56471;53.508;49.252;2023-01-23T07:55:58;128.25;;;70.38;;
69325;SDS011;56471;53.508;49.252;2023-01-23T07:58:27;102.75;;;54.30;;
69325;SDS011;56471;53.508;49.252;2023-01-23T08:00:53;80.55;;;42.20;;
69325;SDS011;56471;53.508;49.252;2023-01-23T08:03:19;68.88;;;35.10;;
69325;SDS011;56471;53.508;49.252;2023-01-23T08:05:48;59.78;;;29.27;;
69325;SDS011;56471;53.508;49.252;2023-01-23T08:08:14;46.55;;;24.50;;
69325;SDS011;56471;53.508;49.252;2023-01-23T08:10:40;37.45;;;20.52;;
69325;SDS011;56471;53.508;49.252;2023-01-23T08:13:06;29.92;;;16.77;;
69325;SDS011;56471;53.508;49.252;2023-01-23T08:15:32;26.40;;;14.68;;
69325;SDS011;56471;53.508;49.252;2023-01-23T08:17:58;22.48;;;12.45;;
69325;SDS011;56471;53.508;49.252;2023-01-23T08:20:24;19.40;;;10.48;;
69325;SDS011;56471;53.508;49.252;2023-01-23T08:22:49;17.45;;;9.98;;
69325;SDS011;56471;53.508;49.252;2023-01-23T08:25:15;16.20;;;9.73;;
69325;SDS011;56471;53.508;49.252;2023-01-23T08:27:41;15.13;;;8.77;;
69325;SDS011;56471;53.508;49.252;2023-01-23T08:30:06;14.57;;;8.15;;
69325;SDS011;56471;53.508;49.252;2023-01-23T08:32:33;13.45;;;7.78;;
69325;SDS011;56471;53.508;49.252;2023-01-23T08:35:00;12.68;;;7.22;;
69325;SDS011;56471;53.508;49.252;2023-01-23T08:37:26;13.43;;;7.43;;
69325;SDS011;56471;53.508;49.252;2023-01-23T08:39:53;12.27;;;6.78;;
69325;SDS011;56471;53.508;49.252;2023-01-23T08:42:18;10.40;;;6.15;;
69325;SDS011;56471;53.508;49.252;2023-01-23T08:44:44;10.07;;;6.00;;
69325;SDS011;56471;53.508;49.252;2023-01-23T08:47:09;10.10;;;5.90;;
69325;SDS011;56471;53.508;49.252;2023-01-23T08:49:35;8.65;;;5.35;;
69325;SDS011;56471;53.508;49.252;2023-01-23T08:52:01;8.88;;;5.07;;
69325;SDS011;56471;53.508;49.252;2023-01-23T08:54:29;8.90;;;4.90;;
69325;SDS011;56471;53.508;49.252;2023-01-23T08:56:54;7.57;;;4.50;;
69325;SDS011;56471;53.508;49.252;2023-01-23T08:59:20;8.15;;;4.57;;
69325;SDS011;56471;53.508;49.252;2023-01-23T09:01:46;6.28;;;4.18;;
69325;SDS011;56471;53.508;49.252;2023-01-23T09:04:12;6.80;;;3.80;;
69325;SDS011;56471;53.508;49.252;2023-01-23T09:06:38;6.15;;;3.92;;
69325;SDS011;56471;53.508;49.252;2023-01-23T09:09:03;4.63;;;3.42;;
69325;SDS011;56471;53.508;49.252;2023-01-23T09:11:29;5.30;;;3.47;;
69325;SDS011;56471;53.508;49.252;2023-01-23T09:13:55;5.15;;;3.20;;
69325;SDS011;56471;53.508;49.252;2023-01-23T09:16:21;5.93;;;3.60;;
69325;SDS011;56471;53.508;49.252;2023-01-23T09:18:46;4.82;;;2.90;;
69325;SDS011;56471;53.508;49.252;2023-01-23T09:21:13;5.28;;;2.88;;
69325;SDS011;56471;53.508;49.252;2023-01-23T09:23:40;4.35;;;2.67;;
69325;SDS011;56471;53.508;49.252;2023-01-23T09:26:07;4.03;;;2.50;;
69325;SDS011;56471;53.508;49.252;2023-01-23T09:28:35;3.85;;;2.80;;
69325;SDS011;56471;53.508;49.252;2023-01-23T09:31:03;3.95;;;2.35;;
69325;SDS011;56471;53.508;49.252;2023-01-23T09:33:31;660.95;;;435.92;;
69325;SDS011;56471;53.508;49.252;2023-01-23T09:35:57;443.05;;;278.20;;
69325;SDS011;56471;53.508;49.252;2023-01-23T09:38:23;293.42;;;165.40;;
69325;SDS011;56471;53.508;49.252;2023-01-23T09:40:52;192.93;;;111.15;;
69325;SDS011;56471;53.508;49.252;2023-01-23T09:46:15;107.78;;;59.15;;
69325;SDS011;56471;53.508;49.252;2023-01-23T09:49:01;86.82;;;46.28;;
69325;SDS011;56471;53.508;49.252;2023-01-23T09:54:03;60.30;;;31.70;;
69325;SDS011;56471;53.508;49.252;2023-01-23T09:56:45;53.80;;;26.45;;
69325;SDS011;56471;53.508;49.252;2023-01-23T09:59:13;43.00;;;22.88;;
69325;SDS011;56471;53.508;49.252;2023-01-23T10:02:16;32.25;;;17.92;;
69325;SDS011;56471;53.508;49.252;2023-01-23T10:04:45;26.88;;;14.82;;
69325;SDS011;56471;53.508;49.252;2023-01-23T10:07:32;23.23;;;12.75;;
69325;SDS011;56471;53.508;49.252;2023-01-23T10:13:10;17.52;;;9.80;;
69325;SDS011;56471;53.508;49.252;2023-01-23T10:15:46;18.70;;;9.73;;
69325;SDS011;56471;53.508;49.252;2023-01-23T10:18:32;16.15;;;8.82;;
69325;SDS011;56471;53.508;49.252;2023-01-23T10:21:32;15.50;;;8.63;;
69325;SDS011;56471;53.508;49.252;2023-01-23T10:26:54;12.75;;;7.35;;
69325;SDS011;56471;53.508;49.252;2023-01-23T10:29:40;10.95;;;6.78;;
69325;SDS011;56471;53.508;49.252;2023-01-23T10:32:26;14.18;;;6.88;;
69325;SDS011;56471;53.508;49.252;2023-01-23T10:40:01;10.05;;;5.97;;
69325;SDS011;56471;53.508;49.252;2023-01-23T10:43:09;9.27;;;5.15;;
69325;SDS011;56471;53.508;49.252;2023-01-23T10:45:44;11.07;;;5.68;;
69325;SDS011;56471;53.508;49.252;2023-01-23T10:48:26;8.20;;;4.90;;
69325;SDS011;56471;53.508;49.252;2023-01-23T10:51:01;8.73;;;5.10;;
69325;SDS011;56471;53.508;49.252;2023-01-23T10:53:28;9.77;;;4.70;;
69325;SDS011;56471;53.508;49.252;2023-01-23T10:55:54;8.70;;;4.63;;
69325;SDS011;56471;53.508;49.252;2023-01-23T10:58:36;8.13;;;4.55;;
69325;SDS011;56471;53.508;49.252;2023-01-23T11:01:03;9.40;;;4.50;;
69325;SDS011;56471;53.508;49.252;2023-01-23T11:03:41;8.18;;;3.90;;
69325;SDS011;56471;53.508;49.252;2023-01-23T11:06:15;8.57;;;4.03;;
69325;SDS011;56471;53.508;49.252;2023-01-23T11:08:51;8.70;;;3.88;;
69325;SDS011;56471;53.508;49.252;2023-01-23T11:14:01;5.82;;;3.80;;
69325;SDS011;56471;53.508;49.252;2023-01-23T11:16:28;5.35;;;3.35;;
69325;SDS011;56471;53.508;49.252;2023-01-23T11:19:02;4.75;;;3.00;;
69325;SDS011;56471;53.508;49.252;2023-01-23T11:27:36;5.40;;;2.92;;
69325;SDS011;56471;53.508;49.252;2023-01-23T11:32:58;3.85;;;2.55;;
69325;SDS011;56471;53.508;49.252;2023-01-23T11:38:16;5.18;;;3.00;;
69325;SDS011;56471;53.508;49.252;2023-01-23T11:40:46;221.60;;;128.88;;
69325;SDS011;56471;53.508;49.252;2023-01-23T11:43:13;471.23;;;313.02;;
69325;SDS011;56471;53.508;49.252;2023-01-23T11:45:47;298.75;;;182.55;;
69325;SDS011;56471;53.508;49.252;2023-01-23T11:48:46;177.15;;;108.03;;
69325;SDS011;56471;53.508;49.252;2023-01-23T11:53:43;99.05;;;56.80;;
69325;SDS011;56471;53.508;49.252;2023-01-23T12:01:21;56.78;;;30.38;;
69325;SDS011;56471;53.508;49.252;2023-01-23T12:04:24;43.85;;;24.15;;
69325;SDS011;56471;53.508;49.252;2023-01-23T12:12:38;23.25;;;13.52;;
69325;SDS011;56471;53.508;49.252;2023-01-23T12:21:04;15.82;;;9.48;;
69325;SDS011;56471;53.508;49.252;2023-01-23T12:26:59;13.90;;;8.00;;
69325;SDS011;56471;53.508;49.252;2023-01-23T12:35:29;12.35;;;6.63;;
69325;SDS011;56471;53.508;49.252;2023-01-23T12:40:45;9.50;;;5.70;;
69325;SDS011;56471;53.508;49.252;2023-01-23T12:43:16;9.32;;;5.50;;
69325;SDS011;56471;53.508;49.252;2023-01-23T12:45:50;9.88;;;5.50;;
69325;SDS011;56471;53.508;49.252;2023-01-23T12:51:38;6.35;;;4.40;;
69325;SDS011;56471;53.508;49.252;2023-01-23T12:54:11;6.97;;;4.50;;
69325;SDS011;56471;53.508;49.252;2023-01-23T13:04:54;9.02;;;3.90;;
69325;SDS011;56471;53.508;49.252;2023-01-23T13:07:43;5.55;;;3.45;;
69325;SDS011;56471;53.508;49.252;2023-01-23T13:12:53;5.63;;;3.10;;
69325;SDS011;56471;53.508;49.252;2023-01-23T13:15:21;5.40;;;3.42;;
69325;SDS011;56471;53.508;49.252;2023-01-23T13:17:58;5.18;;;3.30;;
69325;SDS011;56471;53.508;49.252;2023-01-23T13:25:43;4.43;;;2.80;;
69325;SDS011;56471;53.508;49.252;2023-01-23T13:28:25;4.55;;;2.97;;
69325;SDS011;56471;53.508;49.252;2023-01-23T13:30:58;4.60;;;2.60;;
69325;SDS011;56471;53.508;49.252;2023-01-23T13:35:57;4.80;;;2.47;;
69325;SDS011;56471;53.508;49.252;2023-01-23T13:41:39;473.55;;;301.65;;
69325;SDS011;56471;53.508;49.252;2023-01-23T13:44:23;310.60;;;181.15;;
69325;SDS011;56471;53.508;49.252;2023-01-23T13:47:03;202.80;;;115.90;;
69325;SDS011;56471;53.508;49.252;2023-01-23T13:52:50;104.55;;;58.05;;
69325;SDS011;56471;53.508;49.252;2023-01-23T13:55:43;81.20;;;41.67;;
69325;SDS011;56471;53.508;49.252;2023-01-23T13:58:29;65.50;;;33.13;;
69325;SDS011;56471;53.508;49.252;2023-01-23T14:01:09;56.65;;;28.65;;
69325;SDS011;56471;53.508;49.252;2023-01-23T14:04:11;42.92;;;22.13;;
69325;SDS011;56471;53.508;49.252;2023-01-23T14:07:00;31.98;;;17.35;;
69325;SDS011;56471;53.508;49.252;2023-01-23T14:11:56;21.55;;;11.90;;
69325;SDS011;56471;53.508;49.252;2023-01-23T14:14:23;19.63;;;10.43;;
69325;SDS011;56471;53.508;49.252;2023-01-23T14:17:07;16.65;;;9.43;;
69325;SDS011;56471;53.508;49.252;2023-01-23T14:19:37;17.45;;;9.35;;
69325;SDS011;56471;53.508;49.252;2023-01-23T14:22:13;14.80;;;8.60;;
69325;SDS011;56471;53.508;49.252;2023-01-23T14:24:46;14.43;;;7.45;;
69325;SDS011;56471;53.508;49.252;2023-01-23T14:27:22;12.63;;;7.07;;
69325;SDS011;56471;53.508;49.252;2023-01-23T14:32:28;10.90;;;6.57;;
69325;SDS011;56471;53.508;49.252;2023-01-23T14:34:55;9.93;;;5.82;;
69325;SDS011;56471;53.508;49.252;2023-01-23T14:37:21;9.05;;;5.20;;
69325;SDS011;56471;53.508;49.252;2023-01-23T14:39:47;8.38;;;4.90;;
69325;SDS011;56471;53.508;49.252;2023-01-23T14:42:32;7.57;;;4.43;;
69325;SDS011;56471;53.508;49.252;2023-01-23T14:44:58;7.30;;;4.75;;
69325;SDS011;56471;53.508;49.252;2023-01-23T14:47:31;7.35;;;4.30;;
69325;SDS011;56471;53.508;49.252;2023-01-23T14:49:58;7.18;;;4.32;;
69325;SDS011;56471;53.508;49.252;2023-01-23T14:52:26;6.32;;;3.97;;
69325;SDS011;56471;53.508;49.252;2023-01-23T14:54:54;7.22;;;3.90;;
69325;SDS011;56471;53.508;49.252;2023-01-23T14:57:20;5.78;;;3.45;;
69325;SDS011;56471;53.508;49.252;2023-01-23T14:59:47;6.10;;;3.75;;
69325;SDS011;56471;53.508;49.252;2023-01-23T15:07:33;5.18;;;3.15;;
69325;SDS011;56471;53.508;49.252;2023-01-23T15:09:59;5.15;;;3.03;;
69325;SDS011;56471;53.508;49.252;2023-01-23T15:12:25;4.35;;;2.55;;
69325;SDS011;56471;53.508;49.252;2023-01-23T15:14:52;4.53;;;3.00;;
69325;SDS011;56471;53.508;49.252;2023-01-23T15:17:20;4.53;;;2.78;;
69325;SDS011;56471;53.508;49.252;2023-01-23T15:19:49;4.82;;;2.83;;
69325;SDS011;56471;53.508;49.252;2023-01-23T15:22:20;578.60;;;277.45;;
69325;SDS011;56471;53.508;49.252;2023-01-23T15:24:50;948.42;;;579.55;;
69325;SDS011;56471;53.508;49.252;2023-01-23T15:27:21;605.10;;;352.27;;
69325;SDS011;56471;53.508;49.252;2023-01-23T15:29:49;378.52;;;197.48;;
69325;SDS011;56471;53.508;49.252;2023-01-23T15:32:19;229.10;;;115.20;;
69325;SDS011;56471;53.508;49.252;2023-01-23T15:37:21;116.57;;;55.50;;
69325;SDS011;56471;53.508;49.252;2023-01-23T15:39:53;93.07;;;41.90;;
69325;SDS011;56471;53.508;49.252;2023-01-23T15:44:50;54.97;;;24.98;;
69325;SDS011;56471;53.508;49.252;2023-01-23T15:47:16;46.38;;;20.17;;
69325;SDS011;56471;53.508;49.252;2023-01-23T15:49:41;40.97;;;17.30;;
69325;SDS011;56471;53.508;49.252;2023-01-23T15:54:46;29.17;;;13.18;;
69325;SDS011;56471;53.508;49.252;2023-01-23T15:57:14;27.77;;;12.38;;
69325;SDS011;56471;53.508;49.252;2023-01-23T15:59:40;24.95;;;11.25;;
69325;SDS011;56471;53.508;49.252;2023-01-23T16:02:06;21.52;;;10.25;;
69325;SDS011;56471;53.508;49.252;2023-01-23T16:04:38;21.45;;;9.45;;
69325;SDS011;56471;53.508;49.252;2023-01-23T16:07:04;17.77;;;8.65;;
69325;SDS011;56471;53.508;49.252;2023-01-23T16:09:32;17.48;;;7.75;;
69325;SDS011;56471;53.508;49.252;2023-01-23T16:12:00;16.98;;;8.07;;
69325;SDS011;56471;53.508;49.252;2023-01-23T16:14:27;18.73;;;6.93;;
69325;SDS011;56471;53.508;49.252;2023-01-23T16:16:53;15.18;;;6.97;;
69325;SDS011;56471;53.508;49.252;2023-01-23T16:19:18;13.45;;;6.32;;
69325;SDS011;56471;53.508;49.252;2023-01-23T16:21:44;13.60;;;6.38;;
69325;SDS011;56471;53.508;49.252;2023-01-23T16:24:14;13.95;;;5.90;;
69325;SDS011;56471;53.508;49.252;2023-01-23T16:26:50;11.52;;;5.28;;
69325;SDS011;56471;53.508;49.252;2023-01-23T16:29:23;10.00;;;5.00;;
69325;SDS011;56471;53.508;49.252;2023-01-23T16:31:50;11.30;;;5.43;;
69325;SDS011;56471;53.508;49.252;2023-01-23T16:34:18;11.07;;;5.30;;
69325;SDS011;56471;53.508;49.252;2023-01-23T16:36:43;10.85;;;5.07;;